Latest Weather Observations for Yanco

IDN60801

Issued at 8:03 am EST Sunday 28 August 2016 (issued every 30 minutes, with the page automatically refreshed every 10 minutes)

About weather observations | Map of weather stations | Latest weather observations for NSW | Other Formats
Station Details ID: 074037 Name: YANCO AGRICULTURAL INSTITUTE Lat: -34.62 Lon: 146.43 Height: 164.0 m
Data from the previous 72 hours. | See also: Recent months at Yanco
Date/Time
EST
Temp
°C
App
Temp
°C
Dew
Point
°C
Rel
Hum
%
Delta-T
°C
Wind Press
QNH
hPa
Press
MSL
hPa
Rain since
9am
mm
Dir  Spd
km/h
Gust
km/h
Spd
kts
Gust
kts
28/08:00am 8.8 5.9 4.8 76 1.8 N 9 13 5 7 - - 0.2
28/07:30am 7.2 4.5 3.8 79 1.5 N 7 11 4 6 - - 0.2
28/07:00am 6.4 3.3 3.4 81 1.3 N 9 13 5 7 - - 0.2
28/06:30am 6.1 2.6 3.3 82 1.2 NNE 11 15 6 8 - - 0.2
28/06:00am 5.5 2.3 3.0 84 1.0 N 9 13 5 7 - - 0.2
28/05:30am 5.7 2.5 3.2 84 1.0 N 9 11 5 6 - - 0.2
28/05:00am 5.3 2.1 2.8 84 1.0 N 9 11 5 6 - - 0.2
28/04:30am 5.3 2.1 3.0 85 1.0 N 9 11 5 6 - - 0.2
28/04:00am 5.7 2.5 3.2 84 1.0 N 9 11 5 6 - - 0.2
28/03:30am 5.9 2.7 3.2 83 1.1 N 9 11 5 6 - - 0.2
28/03:00am 5.7 2.5 3.0 83 1.1 N 9 11 5 6 - - 0.2
28/02:30am 6.0 3.2 3.0 81 1.3 NNE 7 9 4 5 - - 0.2
28/02:00am 6.5 3.7 3.3 80 1.4 NNE 7 9 4 5 - - 0.2
28/01:30am 6.8 4.0 3.2 78 1.5 NNE 7 9 4 5 - - 0.2
28/01:00am 7.2 5.0 3.4 77 1.6 NE 4 4 2 2 - - 0.2
28/12:30am 7.3 4.2 3.5 77 1.6 NE 9 11 5 6 - - 0.2
28/12:00am 7.7 5.2 3.7 76 1.7 NNE 6 6 3 3 - - 0.2
 
Date/Time
EST
Temp
°C
App
Temp
°C
Dew
Point
°C
Rel
Hum
%
Delta-T
°C
Wind Press
QNH
hPa
Press
MSL
hPa
Rain since
9am
mm
Dir  Spd
km/h
Gust
km/h
Spd
kts
Gust
kts
27/11:30pm 7.5 5.0 3.6 76 1.7 NNE 6 6 3 3 - - 0.2
27/11:00pm 8.2 5.5 3.9 74 1.9 NNE 7 9 4 5 - - 0.2
27/10:30pm 8.6 5.6 4.0 73 2.0 NNE 9 11 5 6 - - 0.2
27/10:00pm 8.3 5.6 3.9 74 1.9 NNE 7 9 4 5 - - 0.2
27/09:30pm 8.8 6.2 4.2 73 2.0 NNE 7 9 4 5 - - 0.2
27/09:00pm 9.0 6.6 4.4 73 2.0 N 6 6 3 3 - - 0.2
27/08:30pm 9.1 7.2 4.7 74 2.0 N 4 6 2 3 - - 0.2
27/08:00pm 9.0 6.6 4.4 73 2.0 N 6 6 3 3 - - 0.2
27/07:30pm 9.2 6.8 4.4 72 2.1 NNW 6 7 3 4 - - 0.2
27/07:00pm 9.6 7.6 4.6 71 2.2 NW 4 6 2 3 - - 0.2
27/06:30pm 10.3 8.4 4.9 69 2.5 NW 4 4 2 2 - - 0.2
27/06:00pm 11.3 9.5 5.2 66 2.8 NW 4 6 2 3 - - 0.2
27/05:30pm 12.1 10.4 5.9 66 2.9 W 4 6 2 3 - - 0.2
27/05:00pm 12.1 9.9 5.3 63 3.2 W 6 9 3 5 - - 0.2
27/04:30pm 13.0 10.4 4.2 55 4.0 WNW 7 15 4 8 - - 0.2
27/04:00pm 14.6 12.2 4.3 50 4.8 W 6 9 3 5 - - 0.2
27/03:30pm 14.0 11.9 3.8 50 4.7 S 4 6 2 3 - - 0.2
27/03:00pm 14.4 12.1 5.0 53 4.4 SW 6 11 3 6 - - 0.2
27/02:30pm 14.5 12.0 5.0 53 4.5 WSW 7 15 4 8 - - 0.2
27/02:00pm 14.0 11.4 4.0 51 4.6 W 7 13 4 7 - - 0.2
27/01:30pm 14.6 12.3 5.7 55 4.3 WNW 7 17 4 9 - - 0.2
27/01:00pm 12.7 10.1 4.4 57 3.8 WSW 7 19 4 10 - - 0.2
27/12:30pm 13.2 10.2 4.1 54 4.2 NW 9 15 5 8 - - 0.2
27/12:00pm 11.5 8.2 4.5 62 3.2 WSW 11 13 6 7 - - 0.0
27/11:30am 12.3 9.6 5.7 64 3.1 W 9 15 5 8 - - 0.0
27/11:00am 12.1 9.8 5.7 65 3.0 WNW 7 15 4 8 - - 0.0
27/10:30am 11.0 8.8 6.0 71 2.3 NW 7 15 4 8 - - 0.0
27/10:00am 10.1 7.6 6.6 79 1.7 WNW 9 13 5 7 - - 0.0
27/09:30am 8.8 6.6 6.1 83 1.2 NW 7 11 4 6 - - 0.0
27/09:00am 7.2 4.3 4.7 84 1.1 WNW 9 11 5 6 - - 0.0
27/08:30am 6.1 3.2 4.9 92 0.5 NW 9 13 5 7 - - 0.0
27/08:00am 5.0 2.6 4.3 95 0.3 NNW 6 9 3 5 - - 0.0
27/07:30am 4.0 1.8 3.6 97 0.2 NW 4 6 2 3 - - 0.0
27/07:00am 2.9 0.1 2.3 96 0.2 NNW 6 7 3 4 - - 0.0
27/06:30am 3.5 0.9 3.2 98 0.1 N 6 7 3 4 - - 0.0
27/06:00am 3.1 0.4 2.8 98 0.1 N 6 7 3 4 - - 0.0
27/05:30am 3.0 0.3 2.6 97 0.2 N 6 7 3 4 - - 0.0
27/05:00am 3.8 1.0 3.4 97 0.2 N 7 7 4 4 - - 0.0
27/04:30am 3.8 1.1 3.5 98 0.1 N 7 9 4 5 - - 0.0
27/04:00am 3.7 1.5 3.6 99 0.0 NNW 4 7 2 4 - - 0.0
27/03:30am 3.0 0.3 2.9 99 0.0 NW 6 9 3 5 - - 0.0
27/03:00am 2.8 0.8 2.5 98 0.1 WSW 2 6 1 3 - - 0.0
27/02:30am 4.2 1.4 3.2 93 0.4 N 7 9 4 5 - - 0.0
27/02:00am 3.9 1.2 2.9 93 0.4 N 6 6 3 3 - - 0.0
27/01:30am 4.0 2.0 2.5 90 0.6 N 2 6 1 3 - - 0.0
27/01:00am 4.5 1.8 2.8 89 0.7 N 6 6 3 3 - - 0.0
27/12:30am 5.0 2.8 3.2 88 0.7 N 4 6 2 3 - - 0.0
27/12:00am 5.3 3.1 3.6 89 0.7 N 4 4 2 2 - - 0.0
 
Date/Time
EST
Temp
°C
App
Temp
°C
Dew
Point
°C
Rel
Hum
%
Delta-T
°C
Wind Press
QNH
hPa
Press
MSL
hPa
Rain since
9am
mm
Dir  Spd
km/h
Gust
km/h
Spd
kts
Gust
kts
26/11:30pm 5.1 2.9 3.6 90 0.6 NNW 4 6 2 3 - - 0.0
26/11:00pm 5.5 4.1 3.8 89 0.7 CALM 0 0 0 0 - - 0.0
26/10:30pm 5.6 4.2 3.8 88 0.8 CALM 0 0 0 0 - - 0.0
26/10:00pm 6.3 4.9 3.6 83 1.2 CALM 0 2 0 1 - - 0.0
26/09:30pm 6.9 5.2 4.0 82 1.3 SSW 2 4 1 2 - - 0.0
26/09:00pm 7.1 5.0 4.1 81 1.3 SSW 4 6 2 3 - - 0.0
26/08:30pm 7.1 5.1 4.4 83 1.2 WSW 4 6 2 3 - - 0.0
26/08:00pm 7.4 5.4 4.2 80 1.4 WSW 4 6 2 3 - - 0.0
26/07:30pm 8.1 6.4 4.1 76 1.8 SW 2 4 1 2 - - 0.0
26/07:00pm 8.5 7.2 3.9 73 2.0 CALM 0 2 0 1 - - 0.0
26/06:30pm 8.4 5.9 3.7 72 2.0 SW 6 7 3 4 - - 0.0
26/06:00pm 8.5 5.9 4.3 75 1.9 SSW 7 9 4 5 - - 0.0
26/05:30pm 9.5 6.4 3.5 66 2.6 SW 9 13 5 7 - - 0.0
26/05:00pm 11.6 7.5 4.3 61 3.3 SW 15 19 8 10 - - 0.0
26/04:30pm 11.1 7.0 4.1 62 3.2 SW 15 20 8 11 - - 0.0
26/04:00pm 11.5 8.2 4.3 61 3.3 SW 11 15 6 8 - - 0.0
26/03:30pm 12.8 9.2 5.2 60 3.6 SSW 13 17 7 9 - - 0.0
26/03:00pm 13.3 9.7 5.2 58 3.8 SSW 13 20 7 11 - - 0.0
26/02:30pm 13.2 9.1 4.6 56 4.0 SW 15 22 8 12 - - 0.0
26/02:00pm 12.7 9.1 5.1 60 3.5 SW 13 20 7 11 - - 0.0
26/01:30pm 12.5 7.9 5.4 62 3.3 SW 19 24 10 13 - - 0.0
26/01:00pm 11.8 7.6 5.7 66 2.9 SSW 17 22 9 12 - - 0.0
26/12:30pm 12.1 8.8 6.4 68 2.7 S 13 17 7 9 - - 0.0
26/12:00pm 11.8 8.9 6.3 69 2.6 SSW 11 17 6 9 - - 0.0
26/11:30am 11.1 7.4 6.3 72 2.3 SSW 15 22 8 12 - - 0.0
26/11:00am 10.6 7.7 6.7 77 1.9 S 11 13 6 7 - - 0.0
26/10:30am 9.7 6.8 6.4 80 1.5 SSW 11 17 6 9 - - 0.0
26/10:00am 9.2 6.4 6.8 85 1.1 S 11 15 6 8 - - 0.0
26/09:30am 7.7 5.2 6.5 92 0.6 S 9 13 5 7 - - 0.0
26/09:00am 6.3 4.1 6.2 99 0.0 SW 7 11 4 6 - - 1.0
26/08:30am 4.5 2.5 4.4 99 0.0 WSW 4 7 2 4 - - 1.0
26/08:00am 2.6 0.3 2.5 99 0.0 SW 4 6 2 3 - - 1.0
26/07:30am 2.2 0.5 2.1 99 0.0 CALM 0 0 0 0 - - 1.0
26/07:00am 2.0 0.3 1.9 99 0.0 CALM 0 0 0 0 - - 1.0
26/06:30am 1.6 -0.2 1.5 99 0.0 CALM 0 0 0 0 - - 1.0
26/06:00am 1.6 -0.5 1.5 99 0.0 SW 2 2 1 1 - - 1.0
26/05:30am 2.1 -0.3 2.0 99 0.0 SW 4 6 2 3 - - 1.0
26/05:00am 2.0 0.3 1.9 99 0.0 CALM 0 0 0 0 - - 1.0
26/04:30am 1.8 0.1 1.7 99 0.0 CALM 0 2 0 1 - - 1.0
26/04:00am 1.8 -1.2 1.7 99 0.0 SW 7 7 4 4 - - 1.0
26/03:30am 2.1 -0.9 1.7 97 0.2 SSW 7 9 4 5 - - 1.0
26/03:00am 2.5 -0.3 1.8 95 0.3 SW 6 6 3 3 - - 1.0
26/02:30am 2.9 0.1 2.2 95 0.3 SW 6 7 3 4 - - 1.0
26/02:00am 2.7 -0.3 2.0 95 0.3 SW 7 9 4 5 - - 1.0
26/01:30am 3.0 0.0 2.3 95 0.3 SW 7 9 4 5 - - 1.0
26/01:00am 3.2 -0.1 2.3 94 0.4 SSW 9 11 5 6 - - 0.8
26/12:30am 3.2 0.3 2.5 95 0.3 SSW 7 9 4 5 - - 0.8
26/12:00am 3.4 0.1 2.2 92 0.5 SSW 9 9 5 5 - - 0.8
 
Date/Time
EST
Temp
°C
App
Temp
°C
Dew
Point
°C
Rel
Hum
%
Delta-T
°C
Wind Press
QNH
hPa
Press
MSL
hPa
Rain since
9am
mm
Dir  Spd
km/h
Gust
km/h
Spd
kts
Gust
kts
25/11:30pm 3.8 0.9 2.5 91 0.5 SW 7 9 4 5 - - 0.8
25/11:00pm 4.6 1.0 2.9 89 0.7 SW 11 13 6 7 - - 0.8
25/10:30pm 5.3 1.4 3.5 88 0.8 SW 13 17 7 9 - - 0.8
25/10:00pm 5.8 3.0 3.1 83 1.1 WSW 7 13 4 7 - - 0.8
25/09:30pm 6.0 3.5 3.8 86 0.9 W 6 7 3 4 - - 0.8
25/09:00pm 6.2 4.2 4.2 87 0.9 W 4 4 2 2 - - 0.8
25/08:30pm 6.4 4.0 4.2 86 1.0 WSW 6 6 3 3 - - 0.8
25/08:00pm 6.1 3.7 4.1 87 0.9 WSW 6 7 3 4 - - 0.8
25/07:30pm 6.1 3.4 3.8 85 1.0 SW 7 11 4 6 - - 0.8
25/07:00pm 6.3 3.6 3.8 84 1.1 SW 7 9 4 5 - - 0.8
25/06:30pm 6.8 3.4 3.8 81 1.3 SW 11 13 6 7 - - 0.8
25/06:00pm 8.4 3.3 4.2 75 1.9 WSW 20 28 11 15 - - 0.8
25/05:30pm 9.6 5.3 5.2 74 2.0 SW 17 20 9 11 - - 0.8
25/05:00pm 8.5 4.9 5.1 79 1.5 WSW 13 19 7 10 - - 0.8
25/04:30pm 8.9 2.7 4.3 73 2.0 WSW 26 39 14 21 - - 0.8
25/04:00pm 10.9 6.4 4.4 64 2.9 WSW 17 24 9 13 - - 0.2
25/03:30pm 11.2 6.6 5.7 69 2.6 SW 19 26 10 14 - - 0.2
25/03:00pm 11.6 5.6 5.3 65 2.9 SW 26 32 14 17 - - 0.0
25/02:30pm 12.6 7.0 5.5 62 3.3 WSW 24 30 13 16 - - 0.0
25/02:00pm 13.4 8.0 6.3 62 3.4 SW 24 33 13 18 - - 0.0
25/01:30pm 12.8 7.3 5.7 62 3.4 SW 24 35 13 19 - - 0.0
25/01:00pm 12.2 6.3 5.8 65 3.0 SW 26 35 14 19 - - 0.0
25/12:30pm 12.2 7.3 6.9 70 2.6 SW 22 30 12 16 - - 0.0
25/12:00pm 11.2 6.1 5.9 70 2.5 SW 22 30 12 16 - - 0.0
25/11:30am 11.1 6.6 6.8 75 2.1 SW 20 28 11 15 - - 0.0
25/11:00am 10.2 5.2 6.5 78 1.7 SW 22 28 12 15 - - 0.0
25/10:30am 8.9 4.2 6.0 82 1.3 SW 20 28 11 15 - - 0.0
25/10:00am 8.4 3.8 6.5 88 0.9 SW 20 32 11 17 - - 0.0
25/09:30am 7.5 3.5 6.6 94 0.4 SW 17 20 9 11 - - 0.0
25/09:00am 6.5 2.4 6.1 97 0.2 SW 17 22 9 12 - - 3.2
25/08:30am 5.0 1.4 4.9 99 0.0 SW 13 17 7 9 - - 3.2

Other Formats:

Comma delimited format used in spreadsheet applications
http://www.bom.gov.au/fwo/IDN60801/IDN60801.95705.axf

JavaScript Object Notation format (JSON) in row-major order
http://www.bom.gov.au/fwo/IDN60801/IDN60801.95705.json